createdAt,value
2023-02-04T00:00:57.834Z,99.90
2023-02-04T00:05:59.530Z,99.90
2023-02-04T00:11:01.226Z,99.90
2023-02-04T00:16:02.988Z,99.90
2023-02-04T00:21:04.940Z,99.90
2023-02-04T00:26:06.684Z,99.90
2023-02-04T00:31:08.414Z,99.90
2023-02-04T00:36:10.308Z,99.90
2023-02-04T00:41:11.953Z,99.90
2023-02-04T00:46:13.647Z,99.90
2023-02-04T00:51:15.337Z,99.90
2023-02-04T00:56:17.034Z,99.90
2023-02-04T01:01:18.724Z,99.90
2023-02-04T01:06:20.496Z,99.90
2023-02-04T01:11:22.160Z,99.90
2023-02-04T01:16:23.925Z,99.90
2023-02-04T01:21:25.705Z,99.90
2023-02-04T01:26:27.352Z,99.90
2023-02-04T01:31:31.381Z,99.90
2023-02-04T01:36:33.139Z,99.90
2023-02-04T01:41:34.826Z,99.90
2023-02-04T01:46:37.452Z,99.90
2023-02-04T01:51:39.867Z,99.90
2023-02-04T01:56:45.673Z,99.90
2023-02-04T02:01:52.212Z,99.90
2023-02-04T02:06:58.614Z,99.90
2023-02-04T02:12:03.038Z,99.90
2023-02-04T02:17:04.752Z,99.90
2023-02-04T02:22:17.960Z,99.90
2023-02-04T02:27:20.648Z,99.90
2023-02-04T02:32:22.389Z,99.90
2023-02-04T02:37:24.558Z,99.90
2023-02-04T02:42:26.455Z,99.90
2023-02-04T02:47:28.448Z,99.90
2023-02-04T02:52:30.174Z,99.90
2023-02-04T02:57:31.836Z,99.90
2023-02-04T03:02:33.607Z,99.90
2023-02-04T03:07:35.388Z,99.90
2023-02-04T03:12:37.377Z,99.90
2023-02-04T03:17:39.705Z,99.90
2023-02-04T03:22:41.816Z,99.90
2023-02-04T03:27:43.972Z,99.90
2023-02-04T03:32:45.683Z,99.90
2023-02-04T03:37:47.549Z,99.90
2023-02-04T03:42:49.215Z,99.90
2023-02-04T03:47:51.045Z,99.90
2023-02-04T03:52:53.796Z,99.90
2023-02-04T03:57:55.501Z,99.90
2023-02-04T04:02:57.521Z,99.90
2023-02-04T04:07:59.351Z,99.90
2023-02-04T04:13:01.019Z,99.90
2023-02-04T04:18:04.499Z,99.90
2023-02-04T04:23:06.162Z,99.90
2023-02-04T04:28:07.863Z,99.90
2023-02-04T04:33:09.639Z,99.90
2023-02-04T04:38:11.401Z,99.90
2023-02-04T04:43:13.048Z,99.90
2023-02-04T04:48:14.913Z,99.90
2023-02-04T04:53:16.722Z,99.90
2023-02-04T04:58:18.398Z,99.90
2023-02-04T05:03:20.150Z,99.90
2023-02-04T05:08:21.820Z,99.90
2023-02-04T05:13:25.250Z,99.90
2023-02-04T05:18:26.964Z,99.90
2023-02-04T05:23:28.654Z,99.90
2023-02-04T05:28:30.298Z,99.90
2023-02-04T05:33:31.937Z,99.90
2023-02-04T05:38:33.562Z,99.90
2023-02-04T05:43:35.279Z,99.90
2023-02-04T05:48:37.005Z,99.90
2023-02-04T05:53:38.641Z,99.90
2023-02-04T05:58:40.282Z,99.90
2023-02-04T06:03:42.030Z,99.90
2023-02-04T06:08:43.718Z,99.90
2023-02-04T06:13:45.350Z,99.90
2023-02-04T06:18:46.990Z,99.90
2023-02-04T06:23:48.694Z,99.90
2023-02-04T06:28:50.343Z,99.90
2023-02-04T06:33:51.987Z,99.90
2023-02-04T06:38:53.641Z,99.90
2023-02-04T06:43:55.294Z,99.90
2023-02-04T06:48:56.977Z,99.90
2023-02-04T06:53:59.220Z,99.90
2023-02-04T06:59:03.248Z,99.90
2023-02-04T07:04:05.148Z,99.90
2023-02-04T07:09:06.787Z,99.90
2023-02-04T07:14:10.203Z,99.90
2023-02-04T07:19:12.340Z,99.90
2023-02-04T07:24:14.010Z,99.90
2023-02-04T07:29:24.787Z,99.90
2023-02-04T07:34:27.048Z,99.90
2023-02-04T07:39:28.785Z,99.90
2023-02-04T07:44:30.507Z,99.90
2023-02-04T07:49:32.185Z,99.90
2023-02-04T07:54:33.883Z,99.90
2023-02-04T07:59:35.518Z,99.90
2023-02-04T08:04:40.418Z,99.90
2023-02-04T08:09:42.065Z,99.90
2023-02-04T08:14:43.703Z,99.90
2023-02-04T08:19:45.355Z,99.90
2023-02-04T08:24:47.052Z,99.90
2023-02-04T08:29:49.134Z,99.90
2023-02-04T08:34:50.798Z,99.90
2023-02-04T08:39:52.534Z,99.90
2023-02-04T08:44:54.197Z,99.90
2023-02-04T08:49:55.870Z,99.90
2023-02-04T08:54:57.516Z,99.90
2023-02-04T08:59:59.232Z,99.90
2023-02-04T09:05:00.898Z,99.90
2023-02-04T09:10:02.600Z,99.90
2023-02-04T09:15:05.402Z,99.90
2023-02-04T09:20:07.443Z,99.90
2023-02-04T09:25:09.116Z,99.90
2023-02-04T09:30:11.439Z,99.90
2023-02-04T09:35:13.155Z,99.90
2023-02-04T09:40:17.336Z,99.90
2023-02-04T09:45:26.670Z,99.90
2023-02-04T09:50:32.165Z,99.90
2023-02-04T09:55:37.418Z,99.90
2023-02-04T10:00:39.074Z,99.90
2023-02-04T10:05:40.705Z,99.90
2023-02-04T10:10:44.041Z,99.90
2023-02-04T10:15:47.833Z,99.90
2023-02-04T10:20:49.585Z,99.90
2023-02-04T10:25:51.243Z,99.90
2023-02-04T10:30:52.963Z,99.90
2023-02-04T10:35:56.961Z,99.90
2023-02-04T10:41:03.808Z,99.90
2023-02-04T10:46:05.564Z,99.90
2023-02-04T10:51:12.722Z,99.90
2023-02-04T10:56:20.092Z,99.90
2023-02-04T11:01:21.797Z,99.90
2023-02-04T11:06:25.166Z,99.90
2023-02-04T11:11:26.967Z,99.90
2023-02-04T11:16:35.445Z,99.90
2023-02-04T11:21:37.076Z,99.90
2023-02-04T11:26:43.289Z,99.90
2023-02-04T11:31:48.027Z,99.90
2023-02-04T11:37:01.767Z,99.90
2023-02-04T11:42:05.138Z,99.90
2023-02-04T11:47:09.921Z,99.90
2023-02-04T11:52:14.407Z,99.90
2023-02-04T11:57:16.080Z,99.50
2023-02-04T12:02:24.011Z,99.20
2023-02-04T12:07:28.980Z,99.80
2023-02-04T12:12:31.369Z,99.80
2023-02-04T12:17:33.014Z,99.10
2023-02-04T12:22:34.741Z,99.30
2023-02-04T12:27:36.449Z,98.90
2023-02-04T12:32:38.489Z,99.40
2023-02-04T12:37:40.141Z,99.10
2023-02-04T12:42:41.814Z,99.80
2023-02-04T12:47:43.991Z,99.40
2023-02-04T12:52:45.619Z,97.60
2023-02-04T12:57:47.356Z,98.20
2023-02-04T13:02:49.689Z,97.50
2023-02-04T13:07:51.397Z,98.20
2023-02-04T13:12:53.009Z,98.80
2023-02-04T13:17:54.726Z,99.40
2023-02-04T13:22:56.366Z,99.60
2023-02-04T13:27:58.024Z,99.60
2023-02-04T13:32:59.722Z,99.60
2023-02-04T13:38:01.489Z,99.50
2023-02-04T13:43:03.217Z,98.10
2023-02-04T13:48:04.866Z,99.30
2023-02-04T13:53:06.728Z,99.30
2023-02-04T13:58:08.436Z,99.20
2023-02-04T14:03:10.139Z,98.90
2023-02-04T14:08:11.803Z,99.20
2023-02-04T14:13:14.010Z,98.30
2023-02-04T14:18:18.790Z,98.90
2023-02-04T14:23:21.532Z,98.00
2023-02-04T14:28:23.287Z,97.90
2023-02-04T14:33:24.957Z,98.20
2023-02-04T14:38:30.853Z,98.30
2023-02-04T14:43:37.183Z,98.60
2023-02-04T14:48:38.876Z,98.30
2023-02-04T14:53:44.073Z,98.50
2023-02-04T14:58:49.713Z,98.20
2023-02-04T15:03:51.340Z,98.10
2023-02-04T15:08:53.105Z,98.40
2023-02-04T15:13:54.793Z,98.00
2023-02-04T15:18:56.493Z,97.70
2023-02-04T15:23:58.193Z,98.00
2023-02-04T15:28:59.860Z,97.70
2023-02-04T15:34:02.056Z,97.90
2023-02-04T15:39:04.004Z,97.30
2023-02-04T15:44:05.693Z,97.30
2023-02-04T15:49:09.013Z,96.70
2023-02-04T15:54:10.869Z,97.40
2023-02-04T15:59:12.546Z,97.60
2023-02-04T16:04:14.186Z,98.00
2023-02-04T16:09:16.006Z,98.50
2023-02-04T16:14:17.669Z,98.60
2023-02-04T16:19:19.316Z,99.70
2023-02-04T16:24:21.239Z,99.90
2023-02-04T16:29:22.958Z,99.90
2023-02-04T16:34:24.908Z,99.90
2023-02-04T16:39:26.571Z,99.90
2023-02-04T16:44:28.215Z,99.90
2023-02-04T16:49:29.962Z,99.90
2023-02-04T16:54:32.687Z,99.90
2023-02-04T16:59:35.717Z,99.90
2023-02-04T17:04:37.465Z,99.90
2023-02-04T17:09:39.129Z,99.90
2023-02-04T17:14:41.114Z,99.90
2023-02-04T17:19:42.796Z,99.90
2023-02-04T17:24:44.512Z,99.90
2023-02-04T17:29:46.266Z,99.90
2023-02-04T17:34:50.700Z,99.90
2023-02-04T17:39:52.414Z,99.90
2023-02-04T17:44:54.411Z,99.90
2023-02-04T17:49:56.268Z,99.90
2023-02-04T17:54:58.219Z,99.90
2023-02-04T18:00:01.081Z,99.90
2023-02-04T18:05:15.185Z,99.90
2023-02-04T18:10:34.245Z,99.90
2023-02-04T18:15:36.854Z,99.90
2023-02-04T18:20:38.797Z,99.90
2023-02-04T18:25:40.667Z,99.90
2023-02-04T18:30:42.884Z,99.90
2023-02-04T18:35:51.504Z,99.90
2023-02-04T18:41:02.434Z,99.90
2023-02-04T18:46:25.737Z,99.90
2023-02-04T18:51:33.937Z,99.90
2023-02-04T18:56:37.574Z,99.90
2023-02-04T19:01:39.644Z,99.90
2023-02-04T19:06:43.931Z,99.90
2023-02-04T19:11:54.245Z,99.90
2023-02-04T19:17:08.181Z,99.90
2023-02-04T19:22:46.621Z,99.90
2023-02-04T19:27:53.720Z,99.90
2023-02-04T19:32:57.519Z,99.90
2023-02-04T19:38:32.879Z,99.90
2023-02-04T19:43:37.681Z,99.90
2023-02-04T19:48:39.324Z,99.90
2023-02-04T19:53:40.969Z,99.90
2023-02-04T19:58:43.303Z,99.90
2023-02-04T20:03:51.465Z,99.90
2023-02-04T20:09:06.714Z,99.90
2023-02-04T20:14:14.391Z,99.90
2023-02-04T20:19:34.143Z,99.90
2023-02-04T20:24:38.986Z,99.90
2023-02-04T20:29:40.663Z,99.90
2023-02-04T20:34:42.317Z,99.90
2023-02-04T20:39:43.959Z,99.90
2023-02-04T20:44:46.988Z,99.90
2023-02-04T20:49:59.067Z,99.90
2023-02-04T20:55:01.100Z,99.90
2023-02-04T21:00:13.878Z,99.90
2023-02-04T21:05:24.634Z,99.90
2023-02-04T21:10:26.266Z,99.90
2023-02-04T21:15:27.996Z,99.90
2023-02-04T21:20:33.393Z,99.90
2023-02-04T21:25:35.537Z,99.90
2023-02-04T21:30:37.252Z,99.90
2023-02-04T21:35:39.885Z,99.90
2023-02-04T21:40:42.184Z,99.90
2023-02-04T21:45:43.854Z,99.90
2023-02-04T21:50:45.495Z,99.90
2023-02-04T21:55:47.213Z,99.90
2023-02-04T22:00:48.919Z,99.90
2023-02-04T22:05:50.588Z,99.90
2023-02-04T22:10:52.210Z,99.90
2023-02-04T22:15:53.865Z,99.90
2023-02-04T22:20:55.547Z,99.90
2023-02-04T22:25:57.172Z,99.90
2023-02-04T22:30:58.906Z,99.90
2023-02-04T22:36:00.679Z,99.90
2023-02-04T22:41:02.349Z,99.90
2023-02-04T22:46:04.103Z,99.90
2023-02-04T22:51:05.811Z,99.90
2023-02-04T22:56:07.557Z,99.90
2023-02-04T23:01:09.332Z,99.90
2023-02-04T23:06:11.274Z,99.90
2023-02-04T23:11:12.897Z,99.90
2023-02-04T23:16:14.617Z,99.90
2023-02-04T23:21:16.340Z,99.90
2023-02-04T23:26:18.936Z,99.90
2023-02-04T23:31:20.698Z,99.90
2023-02-04T23:36:22.940Z,99.90
2023-02-04T23:41:24.577Z,99.90
2023-02-04T23:46:26.208Z,99.90
2023-02-04T23:51:27.891Z,99.90
2023-02-04T23:56:29.649Z,99.90
